Time;durP1;ratioP1;P1;durP2;ratioP2;P2;SDS_P1;SDS_P2;PMS_P1;PMS_P2;Temp;Humidity;BMP_temperature;BMP_pressure;BME280_temperature;BME280_humidity;BME280_pressure;Samples;Min_cycle;Max_cycle;Signal;HPM_P1;HPM_P2
2022/12/17 13:06:40;;;;;;;110.78;43.92;;;-0.40;99.90;;;;;;5002484;28;20081;-59
2022/12/17 13:09:15;;;;;;;116.07;44.50;;;-0.40;99.90;;;;;;4997255;28;20408;-60
2022/12/17 13:11:43;;;;;;;114.97;44.92;;;-0.30;99.90;;;;;;5004055;28;20229;-59
2022/12/17 13:14:28;;;;;;;112.88;44.70;;;-0.30;99.90;;;;;;5003693;28;20356;-57
2022/12/17 13:17:13;;;;;;;105.32;42.40;;;-0.30;99.90;;;;;;5003336;28;20120;-61
2022/12/17 13:19:58;;;;;;;105.85;43.53;;;-0.20;99.90;;;;;;4998873;28;20054;-59
2022/12/17 13:22:23;;;;;;;96.13;41.47;;;-0.10;99.90;;;;;;5001761;28;20129;-57
2022/12/17 13:25:14;;;;;;;110.25;45.30;;;-0.10;99.90;;;;;;5002951;28;20121;-58
2022/12/17 13:27:41;;;;;;;113.55;43.22;;;-0.10;99.90;;;;;;5003350;28;20050;-60
2022/12/17 13:30:15;;;;;;;114.18;45.47;;;-0.20;99.90;;;;;;5003760;28;20057;-58
2022/12/17 13:33:04;;;;;;;115.28;46.25;;;-0.20;99.90;;;;;;5002822;28;20045;-59
2022/12/17 13:35:41;;;;;;;122.40;46.42;;;-0.20;99.90;;;;;;4981777;28;20119;-59
2022/12/17 13:38:14;;;;;;;102.68;41.97;;;-0.20;99.90;;;;;;5001212;28;20053;-60
2022/12/17 13:40:47;;;;;;;109.57;45.47;;;-0.20;99.90;;;;;;5002979;28;20061;-61
2022/12/17 13:43:18;;;;;;;100.93;42.28;;;-0.10;99.90;;;;;;5003583;28;20081;-59
2022/12/17 13:45:44;;;;;;;109.57;42.78;;;-0.10;99.90;;;;;;5003710;28;20049;-59
2022/12/17 13:48:20;;;;;;;109.72;43.80;;;-0.10;99.90;;;;;;5003226;28;20051;-59
2022/12/17 13:50:58;;;;;;;111.50;44.33;;;-0.10;99.90;;;;;;5002693;28;20324;-60
2022/12/17 13:53:25;;;;;;;102.05;42.50;;;-0.10;99.90;;;;;;5002797;28;20049;-59
2022/12/17 13:55:53;;;;;;;110.43;44.90;;;-0.20;99.90;;;;;;5003070;28;20042;-59
2022/12/17 13:58:22;;;;;;;108.78;42.90;;;-0.20;99.90;;;;;;5002997;28;20046;-59
2022/12/17 14:00:48;;;;;;;114.10;44.80;;;-0.30;99.90;;;;;;5003384;28;20493;-59
2022/12/17 14:03:20;;;;;;;119.05;46.10;;;-0.30;99.90;;;;;;5002814;28;20053;-58
2022/12/17 14:05:46;;;;;;;107.25;44.03;;;-0.40;99.90;;;;;;5002370;28;20054;-60
2022/12/17 14:08:17;;;;;;;112.63;45.47;;;-0.40;99.90;;;;;;5002379;28;20052;-60
2022/12/17 14:12:20;;;;;;;111.95;42.47;;;-0.40;99.90;;;;;;5003136;28;20279;-58
2022/12/17 14:13:39;;;;;;;108.63;43.47;;;-0.40;99.90;;;;;;5003007;28;20508;-58
2022/12/17 14:16:05;;;;;;;111.30;43.55;;;-0.40;99.90;;;;;;5003045;28;20091;-60
2022/12/17 14:18:31;;;;;;;115.65;44.60;;;-0.40;99.90;;;;;;5002442;28;20112;-58
2022/12/17 14:20:57;;;;;;;111.63;43.30;;;-0.50;99.90;;;;;;5003370;28;20560;-59
2022/12/17 14:23:28;;;;;;;108.30;41.97;;;-0.50;99.90;;;;;;5006658;28;20072;-59
2022/12/17 14:25:55;;;;;;;113.85;44.25;;;-0.60;99.90;;;;;;5005879;28;20559;-59
2022/12/17 14:28:31;;;;;;;109.57;41.08;;;-0.60;99.90;;;;;;5006065;28;20053;-60
2022/12/17 14:31:18;;;;;;;114.32;41.05;;;-0.70;99.90;;;;;;5005099;28;20064;-59
2022/12/17 14:33:45;;;;;;;116.05;44.47;;;-0.70;99.90;;;;;;5006588;28;20042;-60
2022/12/17 14:36:22;;;;;;;117.80;43.42;;;-0.90;99.90;;;;;;5006494;28;20026;-59
2022/12/17 14:38:54;;;;;;;124.25;46.40;;;-0.90;99.90;;;;;;5005747;28;20106;-59
2022/12/17 14:44:04;;;;;;;111.68;43.25;;;-1.00;99.90;;;;;;5005937;28;20581;-57
2022/12/17 14:46:32;;;;;;;116.93;43.63;;;-1.10;99.90;;;;;;5006394;28;20064;-61
2022/12/17 14:49:00;;;;;;;113.18;43.22;;;-1.10;99.90;;;;;;5003768;28;20045;-59
2022/12/17 14:51:31;;;;;;;112.55;43.45;;;-1.20;99.90;;;;;;5004671;28;20740;-58
2022/12/17 14:54:28;;;;;;;128.30;43.90;;;-1.20;99.90;;;;;;5005166;28;20038;-60
2022/12/17 14:56:56;;;;;;;123.15;44.55;;;-1.20;99.90;;;;;;4986535;28;20053;-59
2022/12/17 14:59:31;;;;;;;128.05;43.67;;;-1.30;99.90;;;;;;4997189;28;20076;-58
2022/12/17 15:02:09;;;;;;;128.93;43.70;;;-1.40;99.90;;;;;;5002672;28;20038;-58
2022/12/17 15:04:37;;;;;;;134.13;43.65;;;-1.40;99.90;;;;;;5005707;28;20058;-58
2022/12/17 15:07:04;;;;;;;131.50;42.30;;;-1.40;99.90;;;;;;5004636;28;20571;-59
2022/12/17 15:09:35;;;;;;;133.95;43.83;;;-1.40;99.90;;;;;;5004613;28;20049;-59
2022/12/17 15:12:00;;;;;;;134.77;43.45;;;-1.50;99.90;;;;;;5003243;28;20044;-59
2022/12/17 15:14:26;;;;;;;137.68;44.33;;;-1.50;99.90;;;;;;5005799;28;20038;-58
2022/12/17 15:16:51;;;;;;;137.30;44.05;;;-1.50;99.90;;;;;;5004901;28;20077;-58
2022/12/17 15:19:17;;;;;;;124.63;41.92;;;-1.50;99.90;;;;;;5003531;28;20064;-59
2022/12/17 15:21:43;;;;;;;148.68;44.40;;;-1.60;99.90;;;;;;5001220;28;20064;-60
2022/12/17 15:24:17;;;;;;;132.30;43.03;;;-1.60;99.90;;;;;;5003190;28;20037;-58
2022/12/17 15:26:43;;;;;;;;;;;-1.60;99.90;;;;;;5003885;28;20076;-58
2022/12/17 15:29:08;;;;;;;138.60;42.25;;;-1.60;99.90;;;;;;5002112;28;20405;-59
2022/12/17 15:31:34;;;;;;;132.30;41.90;;;-1.70;99.90;;;;;;5003030;28;20052;-58
2022/12/17 15:33:59;;;;;;;133.63;41.47;;;-1.70;99.90;;;;;;5003193;28;20034;-61
2022/12/17 15:36:25;;;;;;;127.82;41.47;;;-1.70;99.90;;;;;;5001874;28;20068;-60
2022/12/17 15:38:51;;;;;;;134.05;41.35;;;-1.70;99.90;;;;;;5003639;28;20532;-60
2022/12/17 15:44:01;;;;;;;128.07;40.50;;;-1.80;99.90;;;;;;5003448;28;20049;-62
2022/12/17 15:46:28;;;;;;;137.40;41.63;;;-1.80;99.90;;;;;;5004664;28;20546;-58
2022/12/17 15:48:55;;;;;;;132.10;40.47;;;-1.80;99.90;;;;;;5003421;28;20065;-58
2022/12/17 15:51:22;;;;;;;136.10;40.88;;;-1.80;99.90;;;;;;5000010;28;20034;-59
2022/12/17 15:53:51;;;;;;;133.35;39.83;;;-1.80;99.90;;;;;;5003534;28;20042;-59
2022/12/17 15:56:22;;;;;;;144.50;42.72;;;-1.90;99.90;;;;;;5002994;28;20493;-60
2022/12/17 15:58:48;;;;;;;143.93;40.42;;;-1.90;99.90;;;;;;5002842;28;20030;-59
2022/12/17 16:01:14;;;;;;;149.82;42.60;;;-1.90;99.90;;;;;;4998370;28;20424;-60
2022/12/17 16:03:39;;;;;;;153.27;41.35;;;-1.90;99.90;;;;;;5003791;28;20525;-60
2022/12/17 16:06:05;;;;;;;150.75;42.53;;;-2.00;99.90;;;;;;4999797;28;20038;-60
2022/12/17 16:08:31;;;;;;;158.60;41.45;;;-2.00;99.90;;;;;;5018272;28;20045;-60
2022/12/17 16:10:56;;;;;;;152.10;41.05;;;-2.00;99.90;;;;;;5003901;28;20045;-59
2022/12/17 16:13:22;;;;;;;150.82;41.75;;;-2.00;99.90;;;;;;5004301;28;20042;-58
2022/12/17 16:15:57;;;;;;;154.73;41.45;;;-2.00;99.90;;;;;;5004226;28;20037;-58
2022/12/17 16:18:23;;;;;;;156.43;41.75;;;-2.00;99.90;;;;;;5003221;28;20044;-59
2022/12/17 16:20:49;;;;;;;151.93;40.13;;;-2.10;99.90;;;;;;5002783;28;20042;-59
2022/12/17 16:23:15;;;;;;;158.95;40.05;;;-2.10;99.90;;;;;;5003890;28;20042;-58
2022/12/17 16:25:41;;;;;;;150.63;40.50;;;-2.10;99.90;;;;;;5002419;28;20068;-58
2022/12/17 16:28:07;;;;;;;158.70;40.80;;;-2.10;99.90;;;;;;5015082;28;20041;-59
2022/12/17 16:30:32;;;;;;;167.85;41.00;;;-2.20;99.90;;;;;;5003541;28;20088;-59
2022/12/17 16:32:58;;;;;;;153.27;38.95;;;-2.20;99.90;;;;;;4998019;28;20041;-57
2022/12/17 16:35:24;;;;;;;152.32;39.35;;;-2.20;99.90;;;;;;4996696;28;20065;-60
2022/12/17 16:37:50;;;;;;;150.40;40.53;;;-2.20;99.90;;;;;;4995835;28;20602;-58
2022/12/17 16:40:16;;;;;;;154.88;40.38;;;-2.20;99.90;;;;;;4997272;28;20073;-59
2022/12/17 16:42:41;;;;;;;153.57;40.42;;;-2.20;99.90;;;;;;4997540;28;20100;-59
2022/12/17 16:45:07;;;;;;;152.18;40.45;;;-2.20;99.90;;;;;;4997395;28;20044;-59
2022/12/17 16:47:33;;;;;;;160.20;39.58;;;-2.20;99.90;;;;;;4993128;28;20049;-58
2022/12/17 16:49:58;;;;;;;156.15;41.28;;;-2.20;99.90;;;;;;4997682;28;20080;-59
2022/12/17 16:52:24;;;;;;;168.35;40.53;;;-2.20;99.90;;;;;;4994981;28;20054;-58
2022/12/17 16:54:50;;;;;;;158.38;38.95;;;-2.20;99.90;;;;;;4997826;28;20042;-59
2022/12/17 16:57:15;;;;;;;168.95;41.92;;;-2.20;99.90;;;;;;4998038;28;20048;-59
2022/12/17 16:59:41;;;;;;;172.63;43.38;;;-2.20;99.90;;;;;;4996402;28;20096;-60
2022/12/17 17:02:12;;;;;;;164.30;39.10;;;-2.30;99.90;;;;;;4998261;28;20038;-59
2022/12/17 17:04:38;;;;;;;163.90;41.20;;;-2.30;99.90;;;;;;4998893;28;20034;-60
2022/12/17 17:07:04;;;;;;;159.38;38.72;;;-2.30;99.90;;;;;;4996269;28;20148;-57
2022/12/17 17:09:29;;;;;;;165.60;41.05;;;-2.30;99.90;;;;;;4997529;28;20096;-58
2022/12/17 17:11:57;;;;;;;157.48;39.53;;;-2.30;99.90;;;;;;4998987;28;20104;-59
2022/12/17 17:14:23;;;;;;;156.18;38.08;;;-2.40;99.90;;;;;;4995986;28;20037;-58
2022/12/17 17:16:49;;;;;;;157.75;38.05;;;-2.40;99.90;;;;;;4996016;28;20038;-59
2022/12/17 17:19:14;;;;;;;164.00;38.25;;;-2.40;99.90;;;;;;4997089;28;20068;-59
2022/12/17 17:21:46;;;;;;;153.27;37.75;;;-2.50;99.90;;;;;;4995288;28;20081;-60
2022/12/17 17:24:16;;;;;;;153.82;38.42;;;-2.50;99.90;;;;;;4998268;28;20053;-60
2022/12/17 17:26:42;;;;;;;151.00;37.83;;;-2.50;99.90;;;;;;4999127;28;20030;-61
2022/12/17 17:29:08;;;;;;;156.43;37.83;;;-2.50;99.90;;;;;;4998820;28;20041;-59
2022/12/17 17:31:35;;;;;;;154.25;38.80;;;-2.50;99.90;;;;;;4993081;28;20416;-59
2022/12/17 17:34:01;;;;;;;164.25;38.13;;;-2.50;99.90;;;;;;5000042;28;20132;-58
2022/12/17 17:36:29;;;;;;;167.55;39.83;;;-2.50;99.90;;;;;;4998441;28;20084;-59
2022/12/17 17:38:58;;;;;;;166.45;39.17;;;-2.50;99.90;;;;;;5000318;28;20350;-60
2022/12/17 17:41:26;;;;;;;158.48;36.90;;;-2.50;99.90;;;;;;5002702;28;20092;-60
2022/12/17 17:43:58;;;;;;;178.98;43.10;;;-2.50;99.90;;;;;;4999108;28;20092;-60
2022/12/17 17:46:25;;;;;;;182.38;39.42;;;-2.50;99.90;;;;;;5000714;28;20034;-57
2022/12/17 17:48:51;;;;;;;187.73;44.25;;;-2.50;99.90;;;;;;5000818;28;20045;-59
2022/12/17 17:51:19;;;;;;;178.60;40.90;;;-2.50;99.90;;;;;;4998647;28;20202;-59
2022/12/17 17:53:47;;;;;;;182.15;41.35;;;-2.50;99.90;;;;;;5017817;28;20653;-58
2022/12/17 17:56:15;;;;;;;168.20;41.33;;;-2.50;99.90;;;;;;5003483;28;20030;-59
2022/12/17 17:58:43;;;;;;;160.93;38.60;;;-2.50;99.90;;;;;;5006182;28;20119;-59
2022/12/17 18:01:11;;;;;;;163.80;39.72;;;-2.50;99.90;;;;;;5005611;28;20054;-58
2022/12/17 18:03:37;;;;;;;168.45;40.63;;;-2.50;99.90;;;;;;5006917;28;20477;-58
2022/12/17 18:06:06;;;;;;;190.88;43.92;;;-2.50;99.90;;;;;;5005635;28;20477;-60
2022/12/17 18:08:32;;;;;;;176.73;40.88;;;-2.60;99.90;;;;;;5006794;28;20041;-59
2022/12/17 18:10:59;;;;;;;180.07;40.85;;;-2.60;99.90;;;;;;5006372;28;20433;-59
2022/12/17 18:16:10;;;;;;;;;;;-2.60;99.90;;;;;;5006853;28;20046;-59
2022/12/17 18:18:35;;;;;;;177.68;41.53;;;-2.60;99.90;;;;;;5006076;28;19933;-60
2022/12/17 18:21:21;;;;;;;174.50;43.33;;;-2.60;99.90;;;;;;5005457;28;20489;-59
2022/12/17 18:23:47;;;;;;;171.43;41.60;;;-2.60;99.90;;;;;;4987867;28;20481;-60
2022/12/17 18:26:16;;;;;;;180.05;44.20;;;-2.60;99.90;;;;;;5005934;28;20053;-60
2022/12/17 18:28:43;;;;;;;174.02;44.63;;;-2.60;99.90;;;;;;5006325;28;20042;-59
2022/12/17 18:31:10;;;;;;;178.68;42.35;;;-2.60;99.90;;;;;;5006588;28;20600;-58
2022/12/17 18:33:38;;;;;;;191.18;43.38;;;-2.60;99.90;;;;;;5006053;28;20104;-59
2022/12/17 18:36:12;;;;;;;178.00;42.50;;;-2.60;99.90;;;;;;5004688;28;20050;-58
2022/12/17 18:38:38;;;;;;;;;;;-2.60;99.90;;;;;;5005362;28;20061;-60
2022/12/17 18:43:59;;;;;;;184.88;43.65;;;-2.60;99.90;;;;;;5005651;28;20085;-58
2022/12/17 18:46:26;;;;;;;177.73;44.78;;;-2.60;99.90;;;;;;5000824;28;20068;-61
2022/12/17 18:48:52;;;;;;;172.48;43.95;;;-2.60;99.90;;;;;;5004602;28;20118;-59
2022/12/17 18:51:21;;;;;;;179.27;44.28;;;-2.60;99.90;;;;;;5004009;28;20049;-58
2022/12/17 18:53:47;;;;;;;161.40;42.88;;;-2.60;99.90;;;;;;5005651;28;20346;-60
2022/12/17 18:56:13;;;;;;;163.23;43.85;;;-2.70;99.90;;;;;;5005646;28;20521;-58
2022/12/17 18:58:38;;;;;;;169.30;44.75;;;-2.70;99.90;;;;;;5004956;28;20068;-58
2022/12/17 19:01:05;;;;;;;163.15;43.72;;;-2.70;99.90;;;;;;5003556;28;20069;-58
2022/12/17 19:03:31;;;;;;;163.63;45.25;;;-2.70;99.90;;;;;;5003077;28;20196;-60
2022/12/17 19:05:56;;;;;;;172.52;46.78;;;-2.70;99.90;;;;;;5001726;28;20548;-59
2022/12/17 19:08:22;;;;;;;173.00;46.08;;;-2.70;99.90;;;;;;4982511;28;20123;-58
2022/12/17 19:10:48;;;;;;;166.63;45.92;;;-2.80;99.90;;;;;;5001393;28;20042;-60
2022/12/17 19:13:13;;;;;;;174.73;44.97;;;-2.70;99.90;;;;;;4997466;28;20067;-60
2022/12/17 19:15:39;;;;;;;176.20;48.03;;;-2.70;99.90;;;;;;5002513;28;20490;-59
2022/12/17 19:18:05;;;;;;;154.85;44.92;;;-2.70;99.90;;;;;;5001544;28;20038;-60
2022/12/17 19:20:30;;;;;;;169.20;45.92;;;-2.70;99.90;;;;;;4999249;28;20869;-58
2022/12/17 19:22:56;;;;;;;166.02;45.25;;;-2.80;99.90;;;;;;5001888;28;20046;-59
2022/12/17 19:25:21;;;;;;;165.52;48.05;;;-2.80;99.90;;;;;;5001516;28;20042;-59
2022/12/17 19:27:47;;;;;;;145.88;43.53;;;-2.80;99.90;;;;;;5000593;28;20053;-60
2022/12/17 19:30:13;;;;;;;144.23;44.30;;;-2.80;99.90;;;;;;5001012;28;20041;-59
2022/12/17 19:32:38;;;;;;;154.48;45.47;;;-2.80;99.90;;;;;;5000929;28;20095;-58
2022/12/17 19:35:04;;;;;;;149.27;44.17;;;-2.80;99.90;;;;;;5001869;28;20037;-60
2022/12/17 19:37:30;;;;;;;156.48;45.63;;;-2.80;99.90;;;;;;5001867;28;20189;-60
2022/12/17 19:39:55;;;;;;;158.13;46.47;;;-2.80;99.90;;;;;;5004744;28;20240;-59
2022/12/17 19:42:24;;;;;;;164.52;47.70;;;-2.80;99.90;;;;;;5004574;28;20046;-58
2022/12/17 19:44:54;;;;;;;162.48;48.78;;;-2.80;99.90;;;;;;5001609;28;20069;-60
2022/12/17 19:47:21;;;;;;;162.10;48.65;;;-2.80;99.90;;;;;;5004135;28;20041;-60
2022/12/17 19:49:46;;;;;;;168.07;49.65;;;-2.80;99.90;;;;;;5004437;28;20512;-59
2022/12/17 19:52:12;;;;;;;168.05;49.88;;;-2.80;99.90;;;;;;5003379;28;20060;-60
2022/12/17 19:54:38;;;;;;;163.25;48.80;;;-2.80;99.90;;;;;;5004556;28;20047;-60
2022/12/17 19:57:03;;;;;;;182.70;50.05;;;-2.80;99.90;;;;;;5004837;28;20042;-58
2022/12/17 19:59:29;;;;;;;175.43;51.38;;;-2.80;99.90;;;;;;5002903;28;20390;-60
2022/12/17 20:01:54;;;;;;;190.10;53.08;;;-2.90;99.90;;;;;;5004162;28;20046;-58
2022/12/17 20:04:20;;;;;;;181.32;52.00;;;-2.90;99.90;;;;;;5004898;28;20049;-59
2022/12/17 20:06:45;;;;;;;173.85;52.20;;;-2.90;99.90;;;;;;5002920;28;20095;-59
2022/12/17 20:09:12;;;;;;;172.75;51.60;;;-2.90;99.90;;;;;;5004343;28;20184;-60
2022/12/17 20:11:38;;;;;;;166.13;51.63;;;-2.90;99.90;;;;;;5004579;28;20464;-59
2022/12/17 20:14:12;;;;;;;182.85;54.40;;;-2.90;99.90;;;;;;5004043;28;20037;-59
2022/12/17 20:16:43;;;;;;;159.50;49.85;;;-2.90;99.90;;;;;;5002493;28;20042;-59
2022/12/17 20:19:14;;;;;;;168.05;50.58;;;-2.90;99.90;;;;;;5002935;28;20069;-60
2022/12/17 20:21:40;;;;;;;173.20;52.72;;;-2.90;99.90;;;;;;5001845;28;20055;-58
2022/12/17 20:24:06;;;;;;;153.00;49.65;;;-3.00;99.90;;;;;;5002789;28;20503;-59
2022/12/17 20:26:32;;;;;;;173.80;51.63;;;-3.00;99.90;;;;;;4998982;28;20052;-59
2022/12/17 20:28:58;;;;;;;162.23;51.05;;;-3.00;99.90;;;;;;5001305;28;20335;-59
2022/12/17 20:31:25;;;;;;;178.77;51.83;;;-3.00;99.90;;;;;;5003783;28;20038;-61
2022/12/17 20:33:50;;;;;;;171.38;51.72;;;-3.00;99.90;;;;;;5003642;28;20033;-58
2022/12/17 20:36:18;;;;;;;177.82;52.42;;;-3.00;99.90;;;;;;5001502;28;20087;-59
2022/12/17 20:38:44;;;;;;;164.32;50.65;;;-3.00;99.90;;;;;;5001395;28;20041;-58
2022/12/17 20:41:12;;;;;;;182.10;51.65;;;-3.10;99.90;;;;;;5003237;28;20091;-59
2022/12/17 20:43:38;;;;;;;181.95;52.45;;;-3.10;99.90;;;;;;5003427;28;20044;-58
2022/12/17 20:46:05;;;;;;;180.35;52.08;;;-3.10;99.90;;;;;;5003883;28;20037;-60
2022/12/17 20:48:31;;;;;;;175.25;54.25;;;-3.10;99.90;;;;;;5002465;28;20485;-59
2022/12/17 20:50:56;;;;;;;189.43;53.78;;;-3.10;99.90;;;;;;5003982;28;20045;-58
2022/12/17 20:53:22;;;;;;;185.57;53.42;;;-3.20;99.90;;;;;;5002446;28;20054;-60
2022/12/17 20:55:57;;;;;;;188.07;55.83;;;-3.20;99.90;;;;;;5002673;28;20069;-58
2022/12/17 20:58:22;;;;;;;181.65;54.60;;;-3.20;99.90;;;;;;5002960;28;20042;-60
2022/12/17 21:00:48;;;;;;;204.10;54.20;;;-3.20;99.90;;;;;;5003392;28;20096;-59
2022/12/17 21:03:14;;;;;;;201.27;56.53;;;-3.20;99.90;;;;;;5003425;28;20456;-58
2022/12/17 21:05:39;;;;;;;181.02;52.33;;;-3.20;99.90;;;;;;5002700;28;20053;-60
2022/12/17 21:08:05;;;;;;;188.13;54.03;;;-3.20;99.90;;;;;;5002000;28;20042;-58
2022/12/17 21:10:30;;;;;;;180.07;53.38;;;-3.20;99.90;;;;;;5002413;28;20037;-59
2022/12/17 21:15:46;;;;;;;183.18;51.42;;;-3.20;99.90;;;;;;5002937;28;20038;-58
2022/12/17 21:18:11;;;;;;;186.30;53.78;;;-3.20;99.90;;;;;;5002460;28;20041;-58
2022/12/17 21:20:37;;;;;;;192.95;55.22;;;-3.20;99.90;;;;;;5002913;28;20046;-59
2022/12/17 21:23:02;;;;;;;185.55;53.35;;;-3.20;99.90;;;;;;5002236;28;20049;-58
2022/12/17 21:25:28;;;;;;;201.15;55.20;;;-3.20;99.90;;;;;;5002381;28;20048;-58
2022/12/17 21:27:54;;;;;;;198.38;52.53;;;-3.30;99.90;;;;;;5002887;28;20044;-59
2022/12/17 21:30:19;;;;;;;192.75;52.70;;;-3.30;99.90;;;;;;5003157;28;20065;-59
2022/12/17 21:32:45;;;;;;;201.32;53.25;;;-3.30;99.90;;;;;;5006601;28;20147;-59
2022/12/17 21:35:10;;;;;;;198.85;53.10;;;-3.30;99.90;;;;;;4991713;28;20449;-58
2022/12/17 21:37:36;;;;;;;188.60;49.20;;;-3.30;99.90;;;;;;5006255;28;20501;-59
2022/12/17 21:40:01;;;;;;;174.30;47.85;;;-3.30;99.90;;;;;;5006697;28;20038;-59
2022/12/17 21:45:11;;;;;;;189.60;53.38;;;-3.30;99.90;;;;;;5007077;28;20050;-59
2022/12/17 21:47:37;;;;;;;187.23;48.97;;;-3.30;99.90;;;;;;5006290;28;20072;-57
2022/12/17 21:50:02;;;;;;;181.60;50.38;;;-3.40;99.90;;;;;;5006818;28;20078;-60
2022/12/17 21:52:28;;;;;;;189.75;48.60;;;-3.40;99.90;;;;;;5005032;28;20049;-58
2022/12/17 21:54:53;;;;;;;191.52;49.75;;;-3.40;99.90;;;;;;5005861;28;20037;-58
2022/12/17 21:57:19;;;;;;;208.40;51.72;;;-3.40;99.90;;;;;;5006470;28;20038;-58
2022/12/17 21:59:45;;;;;;;202.82;47.92;;;-3.40;99.90;;;;;;5006603;28;20050;-59
2022/12/17 22:02:11;;;;;;;205.43;51.33;;;-3.40;99.90;;;;;;5006233;28;20501;-60
2022/12/17 22:04:36;;;;;;;199.32;51.88;;;-3.40;99.90;;;;;;5006495;28;20038;-58
2022/12/17 22:07:02;;;;;;;206.98;48.63;;;-3.50;99.90;;;;;;5005202;28;20042;-60
2022/12/17 22:09:27;;;;;;;194.05;49.75;;;-3.50;99.90;;;;;;5005599;28;20045;-59
2022/12/17 22:14:01;;;;;;;202.93;50.47;;;-3.50;99.90;;;;;;5006514;28;20083;-59
2022/12/17 22:14:38;;;;;;;201.27;48.33;;;-3.60;99.90;;;;;;5006412;28;20602;-58
2022/12/17 22:17:04;;;;;;;200.00;47.17;;;-3.60;99.90;;;;;;5006497;28;20038;-59
2022/12/17 22:19:29;;;;;;;215.90;48.33;;;-3.60;99.90;;;;;;5006836;28;20034;-60
2022/12/17 22:21:55;;;;;;;207.88;50.97;;;-3.60;99.90;;;;;;5006487;28;20092;-60
2022/12/17 22:24:21;;;;;;;221.48;51.55;;;-3.60;99.90;;;;;;5006484;28;20041;-59
2022/12/17 22:26:47;;;;;;;201.43;48.42;;;-3.60;99.90;;;;;;5005516;28;20049;-58
2022/12/17 22:34:47;;;;;;;208.25;50.50;;;-3.60;99.90;;;;;;5002522;28;20592;-59
2022/12/17 22:37:12;;;;;;;221.30;51.35;;;-3.60;99.90;;;;;;5003089;28;20038;-59
2022/12/17 22:39:38;;;;;;;213.00;50.83;;;-3.60;99.90;;;;;;5001152;28;20061;-59
2022/12/17 22:44:47;;;;;;;201.85;46.67;;;-3.60;99.90;;;;;;5002863;28;20444;-59
2022/12/17 22:47:13;;;;;;;199.15;46.53;;;-3.60;99.90;;;;;;5004095;28;20042;-59
2022/12/17 22:49:39;;;;;;;184.40;44.50;;;-3.60;99.90;;;;;;5004686;28;20076;-61
2022/12/17 22:52:04;;;;;;;166.48;44.58;;;-3.60;99.90;;;;;;4999255;28;20048;-59
2022/12/17 22:54:30;;;;;;;159.07;42.80;;;-3.60;99.90;;;;;;5001970;28;20611;-59
2022/12/17 22:56:55;;;;;;;163.32;40.95;;;-3.60;99.90;;;;;;5001901;28;20034;-58
2022/12/17 22:59:21;;;;;;;168.05;41.63;;;-3.70;99.90;;;;;;5003524;28;20077;-59
2022/12/17 23:01:47;;;;;;;165.57;41.95;;;-3.70;99.90;;;;;;5001494;28;20042;-59
2022/12/17 23:04:14;;;;;;;160.45;40.88;;;-3.70;99.90;;;;;;5003644;28;20583;-58
2022/12/17 23:06:41;;;;;;;183.85;43.30;;;-3.80;99.90;;;;;;4999595;28;20052;-59
2022/12/17 23:09:07;;;;;;;164.20;42.35;;;-3.80;99.90;;;;;;4999262;28;20049;-59
2022/12/17 23:11:32;;;;;;;161.88;40.78;;;-3.80;99.90;;;;;;5001876;28;20545;-61
2022/12/17 23:13:58;;;;;;;181.90;43.08;;;-3.80;99.90;;;;;;5001238;28;20338;-59
2022/12/17 23:16:24;;;;;;;169.93;44.10;;;-3.90;99.90;;;;;;5001195;28;20771;-59
2022/12/17 23:18:50;;;;;;;160.57;42.03;;;-3.80;99.90;;;;;;5000914;28;20045;-60
2022/12/17 23:21:22;;;;;;;166.02;41.35;;;-3.80;99.90;;;;;;4999339;28;20049;-60
2022/12/17 23:23:48;;;;;;;173.90;42.40;;;-3.90;99.90;;;;;;5002144;28;20351;-58
2022/12/17 23:26:20;;;;;;;163.50;42.00;;;-3.90;99.90;;;;;;5003943;28;20100;-59
2022/12/17 23:28:46;;;;;;;182.52;43.95;;;-3.90;99.90;;;;;;5002851;28;20064;-59
2022/12/17 23:31:12;;;;;;;179.35;43.72;;;-3.90;99.90;;;;;;5004933;28;20038;-59
2022/12/17 23:33:39;;;;;;;186.75;43.60;;;-3.90;99.90;;;;;;5004166;28;20457;-60
2022/12/17 23:36:07;;;;;;;181.48;44.03;;;-3.90;99.90;;;;;;5003172;28;20045;-60
2022/12/17 23:38:33;;;;;;;181.80;41.88;;;-3.90;99.90;;;;;;5004412;28;20052;-60
2022/12/17 23:41:08;;;;;;;171.45;43.22;;;-3.90;99.90;;;;;;5003889;28;20084;-60
2022/12/17 23:43:34;;;;;;;182.27;44.38;;;-3.90;99.90;;;;;;5004171;28;20120;-59
2022/12/17 23:46:00;;;;;;;175.40;42.88;;;-3.90;99.90;;;;;;5003008;28;20525;-60
2022/12/17 23:48:35;;;;;;;165.77;42.00;;;-3.90;99.90;;;;;;5003817;28;20135;-60
2022/12/17 23:51:01;;;;;;;188.20;42.42;;;-3.90;99.90;;;;;;5002121;28;20034;-60
2022/12/17 23:53:28;;;;;;;196.80;44.35;;;-3.90;99.90;;;;;;5002839;28;20262;-59
2022/12/17 23:55:54;;;;;;;187.55;44.17;;;-3.90;99.90;;;;;;5001521;28;20243;-59
2022/12/17 23:58:20;;;;;;;173.90;43.40;;;-3.90;99.90;;;;;;5001345;28;20401;-59
